Terminal Aerodrome Forecast
Issued by NWS

Home | Current Version | Previous Version | Text Only | Print | Product List | Glossary Off
Versions: 1 2 3 4 5 6 7 8 9 10 11 12 13 14

178
FTUS43 KMPX 250536
TAFRWF
TAF
KRWF 250536Z 2506/2606 32014G22KT P6SM SKC
     FM251100 31009KT P6SM SKC
     FM251900 26011KT P6SM FEW040 SCT090
     FM260100 21010KT P6SM OVC090=

USA.gov is the U.S. government's official web portal to all federal, state and local government web resources and services.